createdAt,value
2018-12-30T00:01:47.819Z,4.50
2018-12-30T00:04:23.289Z,4.60
2018-12-30T00:07:00.758Z,4.60
2018-12-30T00:09:34.402Z,4.70
2018-12-30T00:12:08.167Z,4.50
2018-12-30T00:14:44.161Z,4.50
2018-12-30T00:17:21.054Z,4.50
2018-12-30T00:19:56.394Z,4.50
2018-12-30T00:22:29.264Z,4.60
2018-12-30T00:25:01.954Z,4.70
2018-12-30T00:27:38.189Z,4.50
2018-12-30T00:30:13.707Z,4.50
2018-12-30T00:32:47.516Z,4.40
2018-12-30T00:35:22.575Z,4.30
2018-12-30T00:37:57.614Z,4.30
2018-12-30T00:40:31.835Z,4.30
2018-12-30T00:43:05.637Z,4.40
2018-12-30T00:45:44.015Z,4.30
2018-12-30T00:48:20.103Z,4.00
2018-12-30T00:50:54.894Z,3.90
2018-12-30T00:53:29.442Z,4.10
2018-12-30T00:56:03.146Z,4.10
2018-12-30T00:58:37.818Z,4.00
2018-12-30T01:01:11.728Z,4.00
2018-12-30T01:03:47.065Z,4.00
2018-12-30T01:06:21.230Z,3.90
2018-12-30T01:08:55.076Z,4.00
2018-12-30T01:11:29.601Z,4.10
2018-12-30T01:14:02.673Z,4.20
2018-12-30T01:16:38.900Z,4.10
2018-12-30T01:19:16.500Z,4.20
2018-12-30T01:21:51.006Z,4.20
2018-12-30T01:24:26.306Z,4.30
2018-12-30T01:27:00.883Z,4.40
2018-12-30T01:29:38.585Z,4.40
2018-12-30T01:32:13.603Z,4.30
2018-12-30T01:34:46.805Z,4.20
2018-12-30T01:37:21.286Z,4.30
2018-12-30T01:39:55.274Z,4.50
2018-12-30T01:42:29.626Z,4.60
2018-12-30T01:45:02.562Z,4.70
2018-12-30T01:47:35.420Z,4.80
2018-12-30T01:50:08.838Z,4.80
2018-12-30T01:52:41.521Z,4.60
2018-12-30T01:55:14.556Z,4.60
2018-12-30T01:57:52.299Z,4.40
2018-12-30T02:00:29.051Z,4.40
2018-12-30T02:03:03.470Z,4.40
2018-12-30T02:05:37.341Z,4.50
2018-12-30T02:08:10.017Z,4.50
2018-12-30T02:10:43.073Z,4.60
2018-12-30T02:13:16.832Z,4.70
2018-12-30T02:15:51.049Z,4.60
2018-12-30T02:18:24.594Z,4.60
2018-12-30T02:20:58.146Z,4.60
2018-12-30T02:23:31.744Z,4.70
2018-12-30T02:26:04.878Z,4.60
2018-12-30T02:28:42.305Z,4.70
2018-12-30T02:31:15.498Z,4.50
2018-12-30T02:33:49.263Z,4.50
2018-12-30T02:36:22.617Z,4.40
2018-12-30T02:38:57.036Z,4.30
2018-12-30T02:41:29.958Z,4.40
2018-12-30T02:44:04.334Z,4.40
2018-12-30T02:46:39.427Z,4.40
2018-12-30T02:49:17.598Z,4.50
2018-12-30T02:51:51.930Z,4.50
2018-12-30T02:54:24.062Z,4.50
2018-12-30T02:56:57.916Z,4.50
2018-12-30T02:59:30.607Z,4.40
2018-12-30T03:02:06.672Z,4.40
2018-12-30T03:04:42.580Z,4.50
2018-12-30T03:07:18.753Z,4.60
2018-12-30T03:09:53.320Z,4.60
2018-12-30T03:12:30.122Z,4.50
2018-12-30T03:15:04.534Z,4.60
2018-12-30T03:17:42.987Z,4.60
2018-12-30T03:20:16.013Z,4.60
2018-12-30T03:22:48.936Z,4.50
2018-12-30T03:25:22.343Z,4.60
2018-12-30T03:28:01.045Z,4.60
2018-12-30T03:30:38.537Z,4.60
2018-12-30T03:33:11.252Z,4.60
2018-12-30T03:35:46.669Z,4.70
2018-12-30T03:38:20.854Z,4.70
2018-12-30T03:40:55.293Z,4.80
2018-12-30T03:43:29.226Z,4.80
2018-12-30T03:46:05.207Z,4.60
2018-12-30T03:48:39.271Z,4.70
2018-12-30T03:51:14.238Z,4.70
2018-12-30T03:53:46.752Z,4.70
2018-12-30T03:56:21.729Z,4.70
2018-12-30T03:58:58.372Z,4.70
2018-12-30T04:01:34.321Z,4.70
2018-12-30T04:04:08.918Z,4.60
2018-12-30T04:06:42.000Z,4.70
2018-12-30T04:09:15.477Z,4.70
2018-12-30T04:11:48.332Z,4.80
2018-12-30T04:14:21.919Z,4.90
2018-12-30T04:16:57.907Z,4.90
2018-12-30T04:19:34.478Z,4.80
2018-12-30T04:22:07.032Z,4.90
2018-12-30T04:24:40.536Z,4.70
2018-12-30T04:27:14.236Z,4.70
2018-12-30T04:29:47.327Z,4.80
2018-12-30T04:32:21.141Z,5.00
2018-12-30T04:34:55.002Z,5.00
2018-12-30T04:37:29.167Z,5.10
2018-12-30T04:40:03.090Z,5.00
2018-12-30T04:42:37.150Z,5.00
2018-12-30T04:45:10.788Z,5.10
2018-12-30T04:47:45.377Z,5.10
2018-12-30T04:50:19.578Z,5.10
2018-12-30T04:52:52.592Z,5.00
2018-12-30T04:55:25.506Z,5.00
2018-12-30T04:57:58.109Z,5.00
2018-12-30T05:00:32.580Z,4.90
2018-12-30T05:03:06.950Z,4.90
2018-12-30T05:05:41.438Z,4.90
2018-12-30T05:08:15.064Z,4.90
2018-12-30T05:10:48.513Z,4.90
2018-12-30T05:13:22.375Z,5.00
2018-12-30T05:15:55.834Z,5.00
2018-12-30T05:18:29.219Z,5.10
2018-12-30T05:21:02.745Z,5.20
2018-12-30T05:23:36.007Z,5.10
2018-12-30T05:26:09.787Z,5.00
2018-12-30T05:28:44.211Z,5.10
2018-12-30T05:31:18.082Z,5.00
2018-12-30T05:33:54.373Z,4.80
2018-12-30T05:36:28.941Z,4.80
2018-12-30T05:39:05.395Z,4.90
2018-12-30T05:41:39.157Z,5.00
2018-12-30T05:44:11.973Z,4.90
2018-12-30T05:46:45.193Z,4.80
2018-12-30T05:49:18.648Z,4.80
2018-12-30T05:51:52.661Z,4.90
2018-12-30T05:54:27.540Z,4.90
2018-12-30T05:57:01.968Z,5.00
2018-12-30T05:59:35.433Z,5.00
2018-12-30T06:02:07.960Z,5.00
2018-12-30T06:04:41.696Z,5.00
2018-12-30T06:07:15.513Z,5.00
2018-12-30T06:09:49.742Z,5.00
2018-12-30T06:12:22.662Z,5.00
2018-12-30T06:14:55.904Z,5.00
2018-12-30T06:17:29.593Z,5.00
2018-12-30T06:20:03.008Z,5.00
2018-12-30T06:22:36.198Z,5.00
2018-12-30T06:25:08.398Z,4.90
2018-12-30T06:27:40.633Z,4.90
2018-12-30T06:30:14.727Z,4.90
2018-12-30T06:32:50.217Z,5.00
2018-12-30T06:35:24.404Z,5.00
2018-12-30T06:37:58.525Z,5.00
2018-12-30T06:40:32.772Z,5.10
2018-12-30T06:43:07.112Z,5.10
2018-12-30T06:45:40.671Z,5.00
2018-12-30T06:48:13.428Z,4.90
2018-12-30T06:50:47.006Z,5.00
2018-12-30T06:53:19.877Z,5.00
2018-12-30T06:55:52.376Z,5.20
2018-12-30T06:58:25.473Z,5.20
2018-12-30T07:00:58.909Z,5.20
2018-12-30T07:03:33.215Z,5.10
2018-12-30T07:06:07.649Z,5.00
2018-12-30T07:08:42.403Z,4.90
2018-12-30T07:11:16.815Z,5.00
2018-12-30T07:13:50.780Z,5.00
2018-12-30T07:16:24.411Z,5.10
2018-12-30T07:18:58.379Z,5.10
2018-12-30T07:21:32.189Z,5.20
2018-12-30T07:24:04.608Z,5.20
2018-12-30T07:26:37.524Z,5.20
2018-12-30T07:29:11.191Z,5.10
2018-12-30T07:31:45.125Z,5.00
2018-12-30T07:34:18.892Z,4.90
2018-12-30T07:36:52.867Z,5.00
2018-12-30T07:39:27.004Z,4.90
2018-12-30T07:42:06.207Z,4.90
2018-12-30T07:44:45.122Z,4.90
2018-12-30T07:47:19.748Z,5.00
2018-12-30T07:49:53.140Z,5.10
2018-12-30T07:52:26.137Z,5.10
2018-12-30T07:55:00.221Z,5.10
2018-12-30T07:57:33.361Z,5.10
2018-12-30T08:00:08.270Z,5.20
2018-12-30T08:02:43.208Z,5.10
2018-12-30T08:05:16.908Z,5.00
2018-12-30T08:07:50.610Z,5.00
2018-12-30T08:10:24.589Z,5.10
2018-12-30T08:12:59.312Z,5.10
2018-12-30T08:15:33.932Z,5.20
2018-12-30T08:18:07.415Z,5.20
2018-12-30T08:20:40.673Z,5.30
2018-12-30T08:23:13.038Z,5.50
2018-12-30T08:25:45.307Z,5.60
2018-12-30T08:28:25.060Z,5.50
2018-12-30T08:30:55.387Z,5.50
2018-12-30T08:33:29.969Z,5.50
2018-12-30T08:36:03.680Z,5.40
2018-12-30T08:38:37.535Z,5.50
2018-12-30T08:41:11.683Z,5.60
2018-12-30T08:43:46.090Z,5.50
2018-12-30T08:46:21.221Z,5.40
2018-12-30T08:48:54.907Z,5.40
2018-12-30T08:51:28.577Z,5.40
2018-12-30T08:54:01.549Z,5.40
2018-12-30T08:56:35.386Z,5.40
2018-12-30T08:59:09.698Z,5.50
2018-12-30T09:01:43.709Z,5.60
2018-12-30T09:04:16.585Z,5.60
2018-12-30T09:06:49.512Z,5.60
2018-12-30T09:09:22.404Z,5.80
2018-12-30T09:11:55.222Z,6.00
2018-12-30T09:14:27.950Z,6.00
2018-12-30T09:17:02.410Z,6.00
2018-12-30T09:19:35.660Z,6.00
2018-12-30T09:22:08.907Z,6.10
2018-12-30T09:24:41.807Z,6.10
2018-12-30T09:27:15.262Z,6.20
2018-12-30T09:29:49.238Z,6.10
2018-12-30T09:32:23.716Z,6.30
2018-12-30T09:34:57.891Z,6.20
2018-12-30T09:37:30.810Z,6.20
2018-12-30T09:40:03.792Z,6.10
2018-12-30T09:42:37.892Z,6.00
2018-12-30T09:45:10.318Z,5.90
2018-12-30T09:47:44.571Z,6.10
2018-12-30T09:50:19.310Z,6.20
2018-12-30T09:52:55.762Z,6.20
2018-12-30T09:55:29.052Z,6.30
2018-12-30T09:58:09.156Z,6.40
2018-12-30T10:00:42.618Z,6.40
2018-12-30T10:03:16.390Z,6.40
2018-12-30T10:05:49.166Z,6.30
2018-12-30T10:08:23.005Z,6.50
2018-12-30T10:10:56.160Z,6.50
2018-12-30T10:13:30.114Z,6.40
2018-12-30T10:16:03.205Z,6.30
2018-12-30T10:18:37.817Z,6.50
2018-12-30T10:21:11.603Z,6.60
2018-12-30T10:23:44.501Z,6.80
2018-12-30T10:26:17.166Z,7.00
2018-12-30T10:28:50.443Z,7.40
2018-12-30T10:31:24.049Z,7.90
2018-12-30T10:33:56.369Z,8.30
2018-12-30T10:36:29.755Z,8.30
2018-12-30T10:39:05.948Z,8.10
2018-12-30T10:41:40.232Z,8.00
2018-12-30T10:44:12.717Z,7.80
2018-12-30T10:46:45.822Z,7.60
2018-12-30T10:49:18.043Z,7.50
2018-12-30T10:51:50.213Z,7.50
2018-12-30T10:54:23.381Z,7.30
2018-12-30T10:56:55.321Z,7.30
2018-12-30T10:59:29.122Z,7.30
2018-12-30T11:02:02.770Z,7.50
2018-12-30T11:04:37.296Z,7.50
2018-12-30T11:07:11.305Z,7.60
2018-12-30T11:09:45.314Z,7.60
2018-12-30T11:12:18.648Z,7.70
2018-12-30T11:14:53.122Z,7.80
2018-12-30T11:17:25.675Z,8.00
2018-12-30T11:19:57.686Z,7.90
2018-12-30T11:22:30.692Z,7.70
2018-12-30T11:25:03.597Z,7.60
2018-12-30T11:27:37.232Z,7.60
2018-12-30T11:30:11.083Z,7.60
2018-12-30T11:32:43.569Z,7.60
2018-12-30T11:35:17.802Z,7.50
2018-12-30T11:37:51.134Z,7.60
2018-12-30T11:40:24.649Z,7.50
2018-12-30T11:42:58.230Z,7.30
2018-12-30T11:45:33.921Z,7.30
2018-12-30T11:48:07.693Z,7.30
2018-12-30T11:50:41.692Z,7.10
2018-12-30T11:53:15.227Z,7.20
2018-12-30T11:55:50.393Z,7.30
2018-12-30T11:58:24.136Z,7.30
2018-12-30T12:00:57.312Z,7.40
2018-12-30T12:03:31.264Z,7.30
2018-12-30T12:06:03.655Z,7.50
2018-12-30T12:08:36.509Z,7.60
2018-12-30T12:11:10.197Z,7.60
2018-12-30T12:13:43.762Z,7.80
2018-12-30T12:16:16.430Z,7.90
2018-12-30T12:18:49.236Z,7.90
2018-12-30T12:21:21.832Z,8.00
2018-12-30T12:23:53.749Z,7.90
2018-12-30T12:26:25.605Z,7.60
2018-12-30T12:28:59.290Z,7.40
2018-12-30T12:31:34.234Z,7.40
2018-12-30T12:34:07.289Z,7.40
2018-12-30T12:36:42.300Z,7.60
2018-12-30T12:39:20.727Z,7.30
2018-12-30T12:41:56.684Z,7.30
2018-12-30T12:44:32.047Z,7.20
2018-12-30T12:47:10.547Z,7.10
2018-12-30T12:49:46.936Z,6.90
2018-12-30T12:52:20.180Z,7.00
2018-12-30T12:54:52.688Z,7.20
2018-12-30T12:57:25.338Z,7.30
2018-12-30T12:59:58.633Z,7.40
2018-12-30T13:02:31.466Z,7.50
2018-12-30T13:05:05.439Z,7.20
2018-12-30T13:07:39.085Z,7.10
2018-12-30T13:10:14.530Z,6.90
2018-12-30T13:12:47.457Z,7.00
2018-12-30T13:15:21.060Z,7.10
2018-12-30T13:17:53.349Z,7.20
2018-12-30T13:20:26.835Z,7.30
2018-12-30T13:23:02.274Z,7.20
2018-12-30T13:25:36.494Z,7.20
2018-12-30T13:28:11.925Z,7.10
2018-12-30T13:30:46.810Z,7.20
2018-12-30T13:33:18.865Z,7.20
2018-12-30T13:35:51.088Z,7.40
2018-12-30T13:38:28.242Z,7.40
2018-12-30T13:40:57.530Z,7.50
2018-12-30T13:43:31.389Z,7.40
2018-12-30T13:46:04.121Z,7.30
2018-12-30T13:48:37.020Z,7.30
2018-12-30T13:51:10.835Z,7.20
2018-12-30T13:53:43.489Z,7.20
2018-12-30T13:56:16.841Z,7.10
2018-12-30T13:58:50.422Z,7.00
2018-12-30T14:01:24.022Z,7.10
2018-12-30T14:03:58.483Z,7.20
2018-12-30T14:06:32.903Z,7.20
2018-12-30T14:09:07.938Z,7.10
2018-12-30T14:11:42.533Z,7.00
2018-12-30T14:14:16.823Z,7.00
2018-12-30T14:16:50.298Z,7.00
2018-12-30T14:19:23.455Z,7.00
2018-12-30T14:21:57.145Z,7.10
2018-12-30T14:24:29.827Z,7.10
2018-12-30T14:27:03.069Z,7.00
2018-12-30T14:29:36.095Z,7.10
2018-12-30T14:32:10.348Z,6.90
2018-12-30T14:34:44.936Z,6.90
2018-12-30T14:37:19.589Z,6.90
2018-12-30T14:39:53.321Z,6.90
2018-12-30T14:42:28.459Z,7.00
2018-12-30T14:45:02.096Z,7.10
2018-12-30T14:47:36.713Z,7.30
2018-12-30T14:50:13.663Z,7.50
2018-12-30T14:52:47.185Z,7.60
2018-12-30T14:55:21.151Z,7.50
2018-12-30T14:57:54.915Z,7.20
2018-12-30T15:00:29.633Z,7.10
2018-12-30T15:03:02.113Z,6.90
2018-12-30T15:05:34.701Z,6.90
2018-12-30T15:08:07.279Z,7.00
2018-12-30T15:10:43.903Z,7.10
2018-12-30T15:13:17.564Z,7.20
2018-12-30T15:15:51.479Z,7.40
2018-12-30T15:18:24.985Z,7.60
2018-12-30T15:20:58.282Z,7.60
2018-12-30T15:23:32.161Z,7.60
2018-12-30T15:26:05.620Z,7.40
2018-12-30T15:28:38.296Z,7.40
2018-12-30T15:31:11.065Z,7.20
2018-12-30T15:33:45.639Z,7.10
2018-12-30T15:36:18.735Z,7.00
2018-12-30T15:38:53.658Z,7.00
2018-12-30T15:41:26.985Z,7.00
2018-12-30T15:44:01.536Z,7.00
2018-12-30T15:46:34.087Z,6.90
2018-12-30T15:49:06.153Z,6.80
2018-12-30T15:51:38.454Z,6.70
2018-12-30T15:54:11.690Z,6.50
2018-12-30T15:56:45.038Z,6.50
2018-12-30T15:59:26.826Z,6.70
2018-12-30T16:02:01.111Z,6.70
2018-12-30T16:04:35.392Z,6.80
2018-12-30T16:07:09.524Z,6.80
2018-12-30T16:09:43.399Z,6.70
2018-12-30T16:12:16.968Z,6.70
2018-12-30T16:14:53.378Z,6.70
2018-12-30T16:17:27.101Z,6.70
2018-12-30T16:20:00.291Z,6.80
2018-12-30T16:22:34.114Z,6.90
2018-12-30T16:25:09.198Z,7.00
2018-12-30T16:27:42.612Z,7.10
2018-12-30T16:30:15.800Z,7.00
2018-12-30T16:32:49.516Z,7.00
2018-12-30T16:35:22.794Z,6.90
2018-12-30T16:37:55.017Z,6.90
2018-12-30T16:40:30.291Z,6.80
2018-12-30T16:43:04.236Z,6.90
2018-12-30T16:45:38.442Z,6.90
2018-12-30T16:48:12.605Z,6.80
2018-12-30T16:50:47.735Z,6.90
2018-12-30T16:53:21.509Z,6.90
2018-12-30T16:55:54.599Z,7.10
2018-12-30T16:58:28.146Z,7.20
2018-12-30T17:01:03.119Z,7.30
2018-12-30T17:03:36.608Z,7.30
2018-12-30T17:06:11.921Z,7.40
2018-12-30T17:08:44.891Z,7.50
2018-12-30T17:11:18.353Z,7.60
2018-12-30T17:13:52.762Z,7.50
2018-12-30T17:16:26.259Z,7.50
2018-12-30T17:19:00.207Z,7.30
2018-12-30T17:21:34.221Z,7.10
2018-12-30T17:24:07.157Z,7.10
2018-12-30T17:26:41.314Z,6.90
2018-12-30T17:29:14.825Z,6.90
2018-12-30T17:31:48.395Z,7.00
2018-12-30T17:34:22.026Z,7.00
2018-12-30T17:37:02.152Z,7.00
2018-12-30T17:39:37.280Z,7.00
2018-12-30T17:42:11.649Z,6.90
2018-12-30T17:44:45.325Z,6.80
2018-12-30T17:47:18.166Z,7.00
2018-12-30T17:49:50.323Z,7.00
2018-12-30T17:52:23.680Z,7.10
2018-12-30T17:54:56.531Z,7.20
2018-12-30T17:57:29.347Z,7.20
2018-12-30T18:00:03.756Z,7.20
2018-12-30T18:02:37.881Z,7.30
2018-12-30T18:05:11.991Z,7.20
2018-12-30T18:07:44.205Z,7.10
2018-12-30T18:10:17.702Z,7.20
2018-12-30T18:12:52.937Z,7.10
2018-12-30T18:15:27.909Z,7.10
2018-12-30T18:18:01.437Z,7.00
2018-12-30T18:20:36.080Z,6.80
2018-12-30T18:23:10.749Z,6.90
2018-12-30T18:25:44.644Z,7.00
2018-12-30T18:28:18.810Z,6.80
2018-12-30T18:30:51.623Z,6.80
2018-12-30T18:33:24.104Z,6.80
2018-12-30T18:35:59.690Z,6.90
2018-12-30T18:38:32.955Z,7.00
2018-12-30T18:41:05.661Z,7.00
2018-12-30T18:43:38.230Z,7.10
2018-12-30T18:46:11.505Z,7.00
2018-12-30T18:48:53.769Z,6.80
2018-12-30T18:51:33.173Z,6.80
2018-12-30T18:54:05.421Z,6.70
2018-12-30T18:56:38.994Z,6.80
2018-12-30T18:59:14.188Z,6.80
2018-12-30T19:01:49.334Z,6.80
2018-12-30T19:04:21.966Z,6.80
2018-12-30T19:06:54.222Z,6.70
2018-12-30T19:09:26.803Z,6.70
2018-12-30T19:11:59.475Z,6.70
2018-12-30T19:14:34.092Z,6.60
2018-12-30T19:17:07.768Z,6.70
2018-12-30T19:19:42.994Z,6.70
2018-12-30T19:22:17.330Z,6.80
2018-12-30T19:24:51.556Z,6.70
2018-12-30T19:27:26.574Z,6.70
2018-12-30T19:30:01.611Z,6.80
2018-12-30T19:32:34.166Z,6.70
2018-12-30T19:35:14.466Z,6.50
2018-12-30T19:37:53.068Z,6.40
2018-12-30T19:40:28.673Z,6.30
2018-12-30T19:43:00.857Z,6.20
2018-12-30T19:45:33.190Z,6.00
2018-12-30T19:48:06.393Z,6.00
2018-12-30T19:50:40.805Z,5.90
2018-12-30T19:53:15.289Z,6.00
2018-12-30T19:55:49.493Z,6.00
2018-12-30T19:58:25.213Z,6.10
2018-12-30T20:00:59.165Z,6.20
2018-12-30T20:03:33.038Z,6.40
2018-12-30T20:06:05.854Z,6.40
2018-12-30T20:08:38.026Z,6.40
2018-12-30T20:11:11.782Z,6.40
2018-12-30T20:13:46.262Z,6.50
2018-12-30T20:16:20.330Z,6.50
2018-12-30T20:18:54.280Z,6.30
2018-12-30T20:21:29.733Z,6.30
2018-12-30T20:24:05.085Z,6.20
2018-12-30T20:26:38.194Z,6.10
2018-12-30T20:29:10.473Z,6.10
2018-12-30T20:31:44.204Z,6.10
2018-12-30T20:34:19.130Z,6.20
2018-12-30T20:36:53.427Z,6.10
2018-12-30T20:39:28.260Z,6.10
2018-12-30T20:42:00.601Z,6.10
2018-12-30T20:44:32.744Z,6.30
2018-12-30T20:47:05.098Z,6.30
2018-12-30T20:49:37.242Z,6.30
2018-12-30T20:52:09.426Z,6.20
2018-12-30T20:54:42.823Z,6.00
2018-12-30T20:57:16.668Z,6.00
2018-12-30T20:59:50.128Z,6.00
2018-12-30T21:02:24.965Z,6.00
2018-12-30T21:04:59.335Z,6.00
2018-12-30T21:07:37.555Z,6.10
2018-12-30T21:10:12.512Z,6.30
2018-12-30T21:12:47.509Z,6.50
2018-12-30T21:15:22.372Z,6.50
2018-12-30T21:18:00.065Z,6.50
2018-12-30T21:20:35.659Z,6.40
2018-12-30T21:23:12.554Z,6.50
2018-12-30T21:25:47.250Z,6.60
2018-12-30T21:28:29.461Z,6.50
2018-12-30T21:31:02.532Z,6.40
2018-12-30T21:33:34.695Z,6.40
2018-12-30T21:36:08.721Z,6.20
2018-12-30T21:38:43.468Z,6.30
2018-12-30T21:41:18.104Z,6.30
2018-12-30T21:43:53.056Z,6.40
2018-12-30T21:46:26.695Z,6.40
2018-12-30T21:49:00.253Z,6.50
2018-12-30T21:51:34.247Z,6.60
2018-12-30T21:54:08.178Z,6.60
2018-12-30T21:56:42.768Z,6.60
2018-12-30T21:59:17.500Z,6.60
2018-12-30T22:01:51.853Z,6.60
2018-12-30T22:04:25.972Z,6.60
2018-12-30T22:06:59.979Z,6.70
2018-12-30T22:09:34.424Z,6.70
2018-12-30T22:12:08.498Z,6.80
2018-12-30T22:14:42.270Z,6.80
2018-12-30T22:17:14.902Z,6.80
2018-12-30T22:19:47.788Z,6.80
2018-12-30T22:22:19.871Z,6.90
2018-12-30T22:24:51.802Z,7.00
2018-12-30T22:27:24.251Z,7.10
2018-12-30T22:29:56.787Z,7.10
2018-12-30T22:32:30.546Z,7.00
2018-12-30T22:35:02.482Z,7.00
2018-12-30T22:37:34.701Z,7.10
2018-12-30T22:40:08.120Z,7.10
2018-12-30T22:42:40.740Z,7.10
2018-12-30T22:45:13.951Z,7.20
2018-12-30T22:47:46.181Z,7.20
2018-12-30T22:50:19.667Z,7.20
2018-12-30T22:52:52.670Z,7.30
2018-12-30T22:55:25.791Z,7.20
2018-12-30T22:57:58.151Z,7.20
2018-12-30T23:00:48.256Z,7.20
2018-12-30T23:03:23.935Z,7.20
2018-12-30T23:05:58.319Z,7.20
2018-12-30T23:08:30.855Z,7.20
2018-12-30T23:11:07.482Z,7.20
2018-12-30T23:13:40.748Z,7.20
2018-12-30T23:16:13.699Z,7.30
2018-12-30T23:18:48.361Z,7.20
2018-12-30T23:21:24.424Z,7.20
2018-12-30T23:23:58.889Z,7.20
2018-12-30T23:26:31.726Z,7.20
2018-12-30T23:29:04.795Z,7.20
2018-12-30T23:31:37.192Z,7.10
2018-12-30T23:34:09.546Z,7.10
2018-12-30T23:36:43.689Z,7.10
2018-12-30T23:39:15.735Z,7.00
2018-12-30T23:41:48.802Z,7.10
2018-12-30T23:44:21.475Z,7.20
2018-12-30T23:46:54.026Z,7.20
2018-12-30T23:49:31.673Z,7.10
2018-12-30T23:52:04.985Z,7.00
2018-12-30T23:54:37.286Z,7.00
2018-12-30T23:57:09.141Z,7.00
2018-12-30T23:59:41.281Z,7.00
